Time;durP1;ratioP1;P1;durP2;ratioP2;P2;SDS_P1;SDS_P2;PMS_P1;PMS_P2;Temp;Humidity;BMP_temperature;BMP_pressure;BME280_temperature;BME280_humidity;BME280_pressure;Samples;Min_cycle;Max_cycle;Signal;HPM_P1;HPM_P2
2023/09/07 00:00:10;;;;;;;9.48;5.00;;;20.60;77.60;;;;;;5033519;28;20108;-66
2023/09/07 00:02:36;;;;;;;9.90;4.28;;;20.60;77.50;;;;;;5032730;28;20021;-66
2023/09/07 00:05:02;;;;;;;10.32;4.47;;;20.60;77.80;;;;;;5033504;28;20026;-65
2023/09/07 00:07:27;;;;;;;8.13;5.20;;;20.60;78.10;;;;;;5032571;28;20470;-65
2023/09/07 00:09:53;;;;;;;14.85;5.75;;;20.60;78.50;;;;;;5033262;28;20076;-65
2023/09/07 00:12:19;;;;;;;10.20;4.88;;;20.50;78.70;;;;;;5033032;28;20029;-66
2023/09/07 00:14:46;;;;;;;8.88;5.20;;;20.50;79.00;;;;;;5033120;28;20076;-65
2023/09/07 00:17:11;;;;;;;9.35;5.30;;;20.50;79.40;;;;;;5050494;28;20466;-65
2023/09/07 00:19:37;;;;;;;10.30;4.93;;;20.40;79.90;;;;;;5052643;28;20029;-66
2023/09/07 00:22:03;;;;;;;9.82;5.03;;;20.40;80.50;;;;;;5052882;28;20033;-64
2023/09/07 00:24:31;;;;;;;10.13;4.82;;;20.40;80.00;;;;;;5052496;28;20029;-65
2023/09/07 00:26:57;;;;;;;12.38;5.85;;;20.30;80.70;;;;;;5052777;28;20063;-65
2023/09/07 00:29:23;;;;;;;9.55;5.45;;;20.30;81.60;;;;;;5052401;28;20036;-66
2023/09/07 00:31:49;;;;;;;9.20;4.93;;;20.20;81.50;;;;;;5053077;28;20482;-65
2023/09/07 00:34:15;;;;;;;6.65;5.07;;;20.20;82.20;;;;;;5052350;28;20036;-68
2023/09/07 00:36:40;;;;;;;7.93;4.80;;;20.20;82.20;;;;;;5052598;28;20032;-65
2023/09/07 00:39:06;;;;;;;7.82;4.43;;;20.10;82.40;;;;;;5035839;28;20378;-65
2023/09/07 00:41:31;;;;;;;9.30;4.60;;;20.10;83.30;;;;;;5032316;28;20025;-65
2023/09/07 00:43:57;;;;;;;7.20;4.60;;;20.00;83.60;;;;;;5032697;28;20025;-65
2023/09/07 00:46:23;;;;;;;8.75;5.28;;;20.00;83.70;;;;;;5031862;28;20100;-65
2023/09/07 00:48:49;;;;;;;11.93;4.93;;;20.00;83.80;;;;;;5033054;28;20040;-64
2023/09/07 00:51:15;;;;;;;12.07;5.75;;;20.00;83.90;;;;;;5032860;28;20025;-64
2023/09/07 00:53:41;;;;;;;7.05;5.22;;;20.00;83.80;;;;;;5032391;28;20072;-65
2023/09/07 00:56:07;;;;;;;8.50;4.90;;;19.90;84.10;;;;;;5032561;28;20081;-65
2023/09/07 00:58:33;;;;;;;11.77;6.05;;;19.80;84.30;;;;;;5035724;28;20053;-65
2023/09/07 01:00:59;;;;;;;11.90;5.70;;;19.80;84.90;;;;;;5036439;28;20134;-65
2023/09/07 01:03:25;;;;;;;10.20;5.78;;;19.80;84.80;;;;;;5036419;28;20032;-65
2023/09/07 01:06:17;;;;;;;9.57;6.28;;;19.70;85.30;;;;;;5036511;28;20374;-66
2023/09/07 01:08:46;;;;;;;12.70;6.10;;;19.70;86.00;;;;;;5036770;28;20065;-65
2023/09/07 01:11:22;;;;;;;12.95;6.82;;;19.60;86.20;;;;;;5036500;28;20532;-65
2023/09/07 01:13:49;;;;;;;12.40;6.25;;;19.50;86.50;;;;;;5056371;28;20032;-65
2023/09/07 01:16:14;;;;;;;17.98;6.60;;;19.50;86.70;;;;;;5056378;28;20028;-64
2023/09/07 01:18:41;;;;;;;15.35;6.93;;;19.50;86.40;;;;;;5055876;28;20515;-64
2023/09/07 01:21:08;;;;;;;10.77;6.18;;;19.50;86.70;;;;;;5056294;28;20078;-65
2023/09/07 01:23:39;;;;;;;10.27;6.25;;;19.40;86.90;;;;;;5056129;28;20033;-64
2023/09/07 01:26:08;;;;;;;10.48;5.97;;;19.40;87.50;;;;;;5055728;28;20056;-66
2023/09/07 01:28:33;;;;;;;13.75;6.72;;;19.40;88.00;;;;;;5055657;28;20036;-65
2023/09/07 01:31:01;;;;;;;13.00;6.40;;;19.40;87.80;;;;;;5056143;28;20029;-65
2023/09/07 01:33:27;;;;;;;12.65;6.45;;;19.30;88.10;;;;;;5055813;28;20029;-65
2023/09/07 01:35:52;;;;;;;12.70;6.25;;;19.30;88.70;;;;;;5056235;28;20040;-65
2023/09/07 01:38:18;;;;;;;11.75;6.43;;;19.30;88.70;;;;;;5055860;28;20024;-65
2023/09/07 01:40:44;;;;;;;12.48;6.70;;;19.30;88.70;;;;;;5055488;28;20025;-65
2023/09/07 01:43:10;;;;;;;10.70;6.05;;;19.20;88.90;;;;;;5056269;28;20029;-65
2023/09/07 01:45:35;;;;;;;15.50;6.70;;;19.20;89.40;;;;;;5037607;28;20037;-66
2023/09/07 01:48:03;;;;;;;12.25;6.43;;;19.20;89.30;;;;;;5055837;28;20029;-65
2023/09/07 01:50:28;;;;;;;10.55;6.35;;;19.20;89.30;;;;;;5055417;28;20025;-65
2023/09/07 01:52:54;;;;;;;11.60;6.05;;;19.20;89.20;;;;;;5056019;28;20374;-65
2023/09/07 01:55:20;;;;;;;12.48;6.53;;;19.20;89.30;;;;;;5055797;28;20037;-65
2023/09/07 01:57:45;;;;;;;14.88;6.90;;;19.20;89.30;;;;;;5055329;28;20033;-66
2023/09/07 02:00:12;;;;;;;12.20;5.45;;;19.20;89.20;;;;;;5055608;28;20078;-65
2023/09/07 02:02:38;;;;;;;12.02;5.50;;;19.10;89.70;;;;;;5055179;28;20033;-65
2023/09/07 02:05:04;;;;;;;16.60;6.28;;;19.20;89.60;;;;;;5037565;28;20082;-65
2023/09/07 02:07:29;;;;;;;11.80;6.50;;;19.10;89.30;;;;;;5055060;28;20036;-65
2023/09/07 02:09:55;;;;;;;10.57;6.47;;;19.10;89.70;;;;;;5054316;28;20028;-66
2023/09/07 02:12:21;;;;;;;15.57;6.35;;;19.10;90.00;;;;;;5055411;28;20025;-65
2023/09/07 02:14:46;;;;;;;9.82;5.85;;;19.00;90.30;;;;;;5054645;28;20029;-65
2023/09/07 02:17:17;;;;;;;10.45;6.60;;;19.00;90.40;;;;;;5051801;28;20438;-65
2023/09/07 02:19:43;;;;;;;9.35;6.03;;;18.90;90.60;;;;;;5054671;28;20033;-65
2023/09/07 02:22:09;;;;;;;12.95;6.70;;;18.90;90.60;;;;;;5037310;28;20033;-65
2023/09/07 02:24:35;;;;;;;21.27;7.72;;;18.90;90.70;;;;;;5054750;28;20036;-66
2023/09/07 02:27:00;;;;;;;13.82;6.03;;;18.90;90.90;;;;;;5055041;28;20044;-64
2023/09/07 02:29:26;;;;;;;15.38;6.57;;;18.90;90.80;;;;;;5054752;28;20025;-66
2023/09/07 02:31:52;;;;;;;13.55;5.82;;;18.80;91.00;;;;;;5054921;28;20374;-66
2023/09/07 02:34:18;;;;;;;7.85;5.72;;;18.80;91.10;;;;;;5055045;28;20029;-65
2023/09/07 02:36:43;;;;;;;19.88;6.90;;;18.80;91.30;;;;;;5054641;28;20092;-65
2023/09/07 02:39:11;;;;;;;7.68;6.03;;;18.70;91.40;;;;;;5055003;28;20021;-64
2023/09/07 02:41:37;;;;;;;10.57;6.68;;;18.70;91.50;;;;;;5054489;28;20056;-65
2023/09/07 02:44:02;;;;;;;13.23;6.57;;;18.70;91.60;;;;;;5055136;28;20029;-65
2023/09/07 02:46:28;;;;;;;11.95;6.57;;;18.70;91.70;;;;;;5048907;28;20038;-65
2023/09/07 02:48:57;;;;;;;11.63;7.00;;;18.70;91.80;;;;;;5034537;28;20025;-65
2023/09/07 02:51:24;;;;;;;13.30;6.50;;;18.60;92.00;;;;;;5034653;28;20037;-65
2023/09/07 02:53:50;;;;;;;10.52;6.25;;;18.60;92.20;;;;;;5034252;28;20425;-65
2023/09/07 02:56:15;;;;;;;13.50;6.82;;;18.50;92.40;;;;;;5034537;28;20045;-65
2023/09/07 02:58:41;;;;;;;9.57;6.15;;;18.40;92.50;;;;;;5034482;28;20044;-65
2023/09/07 03:01:10;;;;;;;9.23;6.85;;;18.40;92.40;;;;;;5034310;28;20030;-65
2023/09/07 03:03:36;;;;;;;6.40;5.80;;;18.40;92.50;;;;;;5034207;28;20156;-65
2023/09/07 03:06:12;;;;;;;9.35;6.45;;;18.40;92.70;;;;;;5034640;28;20104;-65
2023/09/07 03:08:39;;;;;;;11.25;7.00;;;18.40;92.60;;;;;;5034069;28;20055;-65
2023/09/07 03:11:05;;;;;;;12.82;6.80;;;18.30;92.70;;;;;;5034097;28;20021;-65
2023/09/07 03:13:31;;;;;;;8.75;6.75;;;18.30;93.00;;;;;;5035938;28;20458;-65
2023/09/07 03:15:58;;;;;;;11.73;6.50;;;18.30;92.90;;;;;;5034369;28;20052;-65
2023/09/07 03:18:23;;;;;;;10.77;6.10;;;18.30;92.90;;;;;;5034556;28;20032;-65
2023/09/07 03:20:55;;;;;;;13.07;6.78;;;18.30;93.00;;;;;;5032758;28;20382;-65
2023/09/07 03:23:21;;;;;;;10.52;6.40;;;18.30;92.80;;;;;;5034235;28;20025;-65
2023/09/07 03:25:46;;;;;;;9.75;6.20;;;18.30;92.80;;;;;;5033710;28;20386;-65
2023/09/07 03:28:12;;;;;;;12.98;7.15;;;18.30;92.70;;;;;;5034109;28;20037;-65
2023/09/07 03:30:38;;;;;;;11.27;6.30;;;18.30;92.70;;;;;;5033649;28;20083;-65
2023/09/07 03:33:05;;;;;;;8.88;5.70;;;18.20;93.20;;;;;;5033643;28;20025;-66
2023/09/07 03:35:31;;;;;;;13.10;6.60;;;18.20;93.20;;;;;;5033568;28;20060;-66
2023/09/07 03:37:56;;;;;;;9.85;6.55;;;18.20;93.10;;;;;;5033640;28;20025;-66
2023/09/07 03:40:22;;;;;;;8.80;5.88;;;18.20;93.20;;;;;;5033853;28;20032;-66
2023/09/07 03:42:47;;;;;;;11.60;6.40;;;18.20;93.00;;;;;;5033416;28;20029;-66
2023/09/07 03:45:13;;;;;;;7.70;5.93;;;18.20;92.90;;;;;;5033644;28;20032;-66
2023/09/07 03:47:39;;;;;;;11.02;6.00;;;18.10;92.90;;;;;;5033278;28;20076;-66
2023/09/07 03:50:05;;;;;;;10.75;6.45;;;18.10;92.90;;;;;;5033698;28;20029;-66
2023/09/07 03:52:31;;;;;;;8.00;6.80;;;18.10;92.90;;;;;;5033222;28;20048;-66
2023/09/07 03:54:57;;;;;;;10.85;6.30;;;18.10;93.00;;;;;;5033560;28;20037;-67
2023/09/07 03:57:24;;;;;;;11.02;6.40;;;18.10;93.10;;;;;;5033734;28;20045;-66
2023/09/07 03:59:49;;;;;;;10.48;6.00;;;18.10;93.10;;;;;;5032804;28;20360;-66
2023/09/07 04:02:17;;;;;;;13.07;6.45;;;18.10;93.20;;;;;;5033399;28;20057;-66
2023/09/07 04:04:43;;;;;;;9.90;6.60;;;18.10;93.10;;;;;;5032796;28;20033;-66
2023/09/07 04:07:09;;;;;;;10.45;5.93;;;18.10;93.10;;;;;;5033661;28;20040;-66
2023/09/07 04:09:35;;;;;;;13.93;6.25;;;18.10;93.10;;;;;;5032583;28;20026;-66
2023/09/07 04:12:01;;;;;;;12.68;6.53;;;18.10;93.20;;;;;;5033299;28;20057;-66
2023/09/07 04:14:28;;;;;;;11.25;6.28;;;18.10;93.20;;;;;;5033171;28;20536;-66
2023/09/07 04:16:53;;;;;;;8.27;5.93;;;18.10;93.10;;;;;;5032707;28;20198;-66
2023/09/07 04:19:19;;;;;;;12.90;6.28;;;18.10;92.80;;;;;;5017436;28;20030;-65
2023/09/07 04:21:44;;;;;;;7.93;5.75;;;18.00;93.10;;;;;;5032349;28;20053;-65
2023/09/07 04:24:10;;;;;;;10.23;6.22;;;18.00;93.10;;;;;;5032871;28;20462;-65
2023/09/07 04:26:37;;;;;;;11.77;6.03;;;18.00;92.90;;;;;;5032852;28;20037;-66
2023/09/07 04:29:03;;;;;;;10.80;5.88;;;18.00;92.70;;;;;;5015231;28;20029;-65
2023/09/07 04:31:30;;;;;;;13.63;6.13;;;18.00;92.70;;;;;;5014625;28;20436;-65
2023/09/07 04:33:55;;;;;;;11.65;6.53;;;18.00;92.80;;;;;;5014670;28;20061;-65
2023/09/07 04:36:21;;;;;;;12.07;6.22;;;18.00;92.80;;;;;;5032872;28;20029;-65
2023/09/07 04:38:47;;;;;;;12.15;5.82;;;18.00;92.80;;;;;;5032392;28;20029;-65
2023/09/07 04:41:13;;;;;;;7.47;5.70;;;17.90;93.00;;;;;;5032655;28;20029;-65
2023/09/07 04:43:43;;;;;;;10.98;6.57;;;18.00;93.20;;;;;;5014547;28;20083;-66
2023/09/07 04:46:09;;;;;;;11.10;6.40;;;18.00;93.20;;;;;;5015002;28;20038;-66
2023/09/07 04:48:34;;;;;;;11.68;6.35;;;18.00;93.30;;;;;;5032338;28;20079;-66
2023/09/07 04:51:05;;;;;;;10.77;6.72;;;18.00;93.30;;;;;;5032907;28;20037;-65
2023/09/07 04:53:34;;;;;;;10.27;6.53;;;17.90;93.50;;;;;;5050497;28;20025;-66
2023/09/07 04:56:01;;;;;;;12.52;7.07;;;18.00;93.40;;;;;;5046227;28;20063;-66
2023/09/07 04:58:26;;;;;;;17.63;6.90;;;18.00;93.40;;;;;;5072611;28;20031;-65
2023/09/07 05:00:52;;;;;;;13.60;6.45;;;18.00;93.30;;;;;;5072002;28;20344;-66
2023/09/07 05:03:18;;;;;;;9.73;6.00;;;18.00;93.10;;;;;;5072433;28;20024;-65
2023/09/07 05:05:44;;;;;;;12.48;6.43;;;18.10;93.20;;;;;;5070696;28;20028;-65
2023/09/07 05:08:10;;;;;;;13.32;7.18;;;18.10;93.10;;;;;;5072397;28;20071;-65
2023/09/07 05:10:36;;;;;;;9.68;6.85;;;18.10;93.20;;;;;;5071944;28;20059;-66
2023/09/07 05:13:02;;;;;;;10.70;6.53;;;18.10;93.00;;;;;;5072231;28;20033;-65
2023/09/07 05:15:28;;;;;;;7.70;6.32;;;18.20;93.00;;;;;;5072676;28;20028;-65
2023/09/07 05:17:54;;;;;;;12.82;6.72;;;18.20;92.80;;;;;;5072092;28;20070;-65
2023/09/07 05:20:20;;;;;;;8.82;6.45;;;18.20;92.80;;;;;;5072574;28;20078;-65
2023/09/07 05:22:46;;;;;;;15.45;7.00;;;18.20;92.60;;;;;;5068467;28;20029;-65
2023/09/07 05:25:11;;;;;;;9.73;6.85;;;18.30;92.70;;;;;;5072317;28;20033;-65
2023/09/07 05:27:38;;;;;;;14.25;7.00;;;18.30;92.80;;;;;;5071790;28;20480;-66
2023/09/07 05:30:04;;;;;;;11.00;7.38;;;18.30;92.70;;;;;;5072428;28;20028;-66
2023/09/07 05:32:30;;;;;;;9.40;6.05;;;18.30;92.60;;;;;;5071089;28;20060;-65
2023/09/07 05:34:56;;;;;;;10.13;7.15;;;18.40;92.60;;;;;;5071540;28;20117;-65
2023/09/07 05:37:21;;;;;;;16.48;7.25;;;18.40;92.50;;;;;;5070968;28;20025;-65
2023/09/07 05:39:47;;;;;;;11.05;6.63;;;18.40;92.40;;;;;;5071724;28;20028;-65
2023/09/07 05:42:12;;;;;;;11.10;7.18;;;18.40;92.20;;;;;;5072064;28;20082;-65
2023/09/07 05:44:38;;;;;;;13.55;7.07;;;18.50;92.30;;;;;;5073118;28;20055;-65
2023/09/07 05:47:04;;;;;;;10.85;7.10;;;18.50;92.20;;;;;;5075723;28;20033;-67
2023/09/07 05:49:30;;;;;;;11.15;7.07;;;18.60;92.00;;;;;;5075826;28;20033;-66
2023/09/07 05:51:56;;;;;;;15.32;8.13;;;18.60;92.00;;;;;;5075592;28;20023;-65
2023/09/07 05:54:22;;;;;;;13.38;7.28;;;18.70;91.90;;;;;;5075442;28;20454;-66
2023/09/07 05:56:47;;;;;;;10.32;7.50;;;18.70;91.90;;;;;;5060772;28;20087;-65
2023/09/07 05:59:13;;;;;;;13.70;6.30;;;18.80;91.80;;;;;;5055394;28;20453;-64
2023/09/07 06:01:39;;;;;;;10.45;6.65;;;18.80;91.70;;;;;;5055222;28;20039;-65
2023/09/07 06:04:06;;;;;;;15.18;6.65;;;18.80;91.00;;;;;;5055495;28;20059;-66
2023/09/07 06:06:31;;;;;;;8.93;6.18;;;18.80;90.80;;;;;;5055348;28;20028;-66
2023/09/07 06:08:58;;;;;;;10.10;7.05;;;18.90;91.00;;;;;;5055260;28;20040;-66
2023/09/07 06:11:25;;;;;;;14.65;6.68;;;19.00;90.80;;;;;;5055407;28;20025;-65
2023/09/07 06:13:50;;;;;;;10.00;6.30;;;19.10;90.30;;;;;;5055117;28;20025;-66
2023/09/07 06:16:16;;;;;;;13.60;6.40;;;19.20;90.00;;;;;;5055262;28;20040;-66
2023/09/07 06:18:42;;;;;;;8.90;6.53;;;19.30;89.40;;;;;;5055135;28;20116;-65
2023/09/07 06:21:08;;;;;;;8.85;6.15;;;19.40;89.10;;;;;;5051863;28;20096;-65
2023/09/07 06:23:33;;;;;;;7.47;5.63;;;19.50;88.20;;;;;;5055220;28;20533;-65
2023/09/07 06:26:00;;;;;;;7.28;5.20;;;19.60;87.20;;;;;;5054355;28;20127;-65
2023/09/07 06:28:26;;;;;;;8.23;5.30;;;19.70;87.20;;;;;;5055089;28;20112;-65
2023/09/07 06:30:52;;;;;;;9.30;4.43;;;19.90;85.90;;;;;;5054993;28;20103;-64
2023/09/07 06:33:18;;;;;;;7.13;4.68;;;20.10;84.20;;;;;;5054977;28;20083;-66
2023/09/07 06:35:43;;;;;;;11.45;4.72;;;20.40;82.30;;;;;;5054756;28;20535;-65
2023/09/07 06:38:09;;;;;;;11.80;5.20;;;20.70;80.80;;;;;;5055650;28;20033;-66
2023/09/07 06:40:35;;;;;;;5.78;4.70;;;21.00;79.10;;;;;;5055418;28;20029;-66
2023/09/07 06:43:04;;;;;;;7.97;4.82;;;21.30;77.10;;;;;;5055040;28;20408;-66
2023/09/07 06:45:34;;;;;;;8.38;4.78;;;21.60;76.40;;;;;;5055468;28;20090;-65
2023/09/07 06:47:59;;;;;;;11.57;5.15;;;22.00;73.80;;;;;;5054931;28;20493;-66
2023/09/07 06:50:25;;;;;;;11.95;5.72;;;22.40;72.40;;;;;;5055383;28;20029;-65
2023/09/07 06:52:51;;;;;;;11.90;5.75;;;22.60;71.10;;;;;;5036359;28;20025;-65
2023/09/07 06:55:16;;;;;;;8.15;5.25;;;23.00;69.40;;;;;;5036292;28;20466;-67
2023/09/07 06:57:42;;;;;;;9.50;5.55;;;23.50;68.70;;;;;;5052677;28;20021;-69
2023/09/07 07:00:08;;;;;;;11.25;5.18;;;23.90;66.80;;;;;;5054373;28;20100;-65
2023/09/07 07:02:34;;;;;;;8.43;5.07;;;24.30;65.40;;;;;;5054377;28;20040;-65
2023/09/07 07:05:00;;;;;;;11.60;5.95;;;24.70;64.40;;;;;;5053751;28;20025;-65
2023/09/07 07:07:26;;;;;;;7.95;6.15;;;25.00;61.60;;;;;;5054342;28;20025;-65
2023/09/07 07:09:52;;;;;;;10.35;6.15;;;25.40;61.70;;;;;;5053864;28;20116;-65
2023/09/07 07:12:18;;;;;;;8.35;5.95;;;26.10;59.50;;;;;;5054223;28;20112;-66
2023/09/07 07:14:44;;;;;;;6.97;5.00;;;26.90;58.00;;;;;;5054038;28;20036;-66
2023/09/07 07:17:10;;;;;;;11.38;5.82;;;28.10;54.90;;;;;;5053793;28;20028;-66
2023/09/07 07:19:35;;;;;;;9.75;5.78;;;29.10;53.20;;;;;;5053848;28;20033;-66
2023/09/07 07:22:01;;;;;;;9.75;5.35;;;29.80;51.10;;;;;;5050214;28;20075;-66
2023/09/07 07:24:27;;;;;;;10.80;5.32;;;30.40;49.10;;;;;;5053931;28;20029;-66
2023/09/07 07:26:52;;;;;;;8.55;5.10;;;30.90;47.70;;;;;;5053658;28;20449;-65
2023/09/07 07:29:18;;;;;;;6.88;5.10;;;31.50;46.70;;;;;;5053569;28;20072;-65
2023/09/07 07:31:44;;;;;;;11.00;5.13;;;32.10;45.40;;;;;;5053809;28;20036;-65
2023/09/07 07:34:09;;;;;;;5.82;4.75;;;32.60;43.80;;;;;;5053825;28;20470;-65
2023/09/07 07:36:35;;;;;;;6.55;5.35;;;33.20;43.10;;;;;;5053383;28;20036;-65
2023/09/07 07:39:03;;;;;;;6.43;4.85;;;33.70;41.40;;;;;;5052946;28;20028;-65
2023/09/07 07:41:29;;;;;;;8.05;4.57;;;34.20;40.90;;;;;;5053497;28;20025;-66
2023/09/07 07:43:54;;;;;;;8.40;4.20;;;34.70;40.30;;;;;;5053436;28;20108;-66
2023/09/07 07:46:20;;;;;;;4.40;3.80;;;35.10;39.70;;;;;;5053442;28;20071;-65
2023/09/07 07:48:45;;;;;;;7.70;3.90;;;35.50;39.00;;;;;;5053419;28;20377;-69
2023/09/07 07:51:11;;;;;;;12.13;4.53;;;35.60;38.80;;;;;;5053425;28;20029;-65
2023/09/07 07:53:37;;;;;;;9.18;4.10;;;35.60;37.70;;;;;;5053265;28;20028;-66
2023/09/07 07:56:03;;;;;;;9.15;4.65;;;36.00;37.30;;;;;;5052726;28;20041;-66
2023/09/07 07:58:29;;;;;;;8.98;4.43;;;36.10;37.10;;;;;;5035243;28;20372;-65
2023/09/07 08:00:57;;;;;;;8.07;4.82;;;36.50;37.10;;;;;;5052535;28;20032;-65
2023/09/07 08:03:23;;;;;;;8.57;4.78;;;37.10;35.80;;;;;;5053026;28;20051;-66
2023/09/07 08:05:49;;;;;;;9.07;4.78;;;37.20;35.10;;;;;;5052500;28;20033;-67
2023/09/07 08:08:14;;;;;;;6.22;4.47;;;37.50;35.10;;;;;;5052493;28;20032;-65
2023/09/07 08:10:41;;;;;;;12.00;4.25;;;37.70;34.50;;;;;;5052643;28;20593;-65
2023/09/07 08:13:07;;;;;;;5.95;4.07;;;37.90;35.00;;;;;;5052456;28;20381;-65
2023/09/07 08:15:34;;;;;;;9.40;4.07;;;38.00;34.40;;;;;;5052879;28;20021;-66
2023/09/07 08:18:00;;;;;;;10.65;4.38;;;37.70;33.50;;;;;;5052247;28;20473;-66
2023/09/07 08:20:26;;;;;;;4.38;3.75;;;37.90;33.70;;;;;;5052718;28;20025;-66
2023/09/07 08:22:53;;;;;;;6.90;3.80;;;38.00;33.90;;;;;;5052655;28;20043;-66
2023/09/07 08:25:18;;;;;;;6.03;4.00;;;38.10;33.40;;;;;;5045364;28;20032;-65
2023/09/07 08:27:45;;;;;;;6.65;4.13;;;38.30;32.90;;;;;;5032762;28;20030;-65
2023/09/07 08:30:17;;;;;;;5.70;4.18;;;38.50;32.70;;;;;;5032415;28;20060;-64
2023/09/07 08:32:45;;;;;;;6.95;4.20;;;38.30;33.10;;;;;;5032773;28;20080;-65
2023/09/07 08:35:15;;;;;;;8.52;4.88;;;37.60;33.60;;;;;;5032321;28;20120;-66
2023/09/07 08:37:40;;;;;;;7.90;4.30;;;37.40;33.60;;;;;;5032600;28;20026;-67
2023/09/07 08:40:07;;;;;;;6.35;3.92;;;36.50;34.50;;;;;;5032523;28;20095;-65
2023/09/07 08:42:36;;;;;;;4.35;3.50;;;35.90;35.40;;;;;;5032618;28;20029;-65
2023/09/07 08:45:06;;;;;;;10.27;4.45;;;35.10;36.50;;;;;;5032033;28;20029;-65
2023/09/07 08:47:33;;;;;;;7.90;3.72;;;34.50;37.50;;;;;;5032157;28;20033;-65
2023/09/07 08:49:59;;;;;;;5.38;3.72;;;33.80;37.50;;;;;;5032406;28;20463;-64
2023/09/07 08:52:25;;;;;;;7.40;3.78;;;33.30;38.80;;;;;;5032809;28;20459;-64
2023/09/07 08:54:52;;;;;;;10.38;4.65;;;33.00;38.60;;;;;;5032266;28;20123;-70
2023/09/07 08:57:18;;;;;;;11.20;4.50;;;32.40;40.10;;;;;;5031987;28;20513;-66
2023/09/07 08:59:44;;;;;;;8.07;3.50;;;32.00;40.90;;;;;;5014626;28;20117;-66
2023/09/07 09:02:10;;;;;;;8.07;3.20;;;31.90;41.80;;;;;;5031739;28;20101;-64
2023/09/07 09:04:37;;;;;;;4.47;2.97;;;31.90;41.40;;;;;;5032256;28;20116;-65
2023/09/07 09:07:04;;;;;;;4.57;3.13;;;31.70;40.80;;;;;;5048102;28;20359;-66
2023/09/07 09:09:30;;;;;;;8.52;3.40;;;31.30;40.40;;;;;;5051923;28;20457;-65
2023/09/07 09:12:09;;;;;;;6.55;2.88;;;31.10;41.60;;;;;;5051863;28;20074;-66
2023/09/07 09:14:35;;;;;;;4.70;3.50;;;31.10;41.50;;;;;;5048864;28;20032;-65
2023/09/07 09:17:01;;;;;;;8.05;3.63;;;31.00;42.20;;;;;;5051819;28;20029;-66
2023/09/07 09:19:32;;;;;;;6.03;3.13;;;30.90;41.80;;;;;;5053769;28;20021;-65
2023/09/07 09:21:58;;;;;;;4.15;3.20;;;31.00;42.10;;;;;;5055896;28;20036;-63
2023/09/07 09:24:23;;;;;;;8.10;2.95;;;30.50;41.80;;;;;;5055832;28;20025;-64
2023/09/07 09:26:49;;;;;;;4.63;3.17;;;30.40;42.00;;;;;;5056163;28;20029;-65
2023/09/07 09:29:15;;;;;;;5.72;3.38;;;30.30;42.40;;;;;;5055668;28;20025;-66
2023/09/07 09:31:41;;;;;;;5.07;3.08;;;30.40;42.70;;;;;;5056055;28;20040;-66
2023/09/07 09:34:07;;;;;;;6.35;2.60;;;30.60;43.00;;;;;;5055572;28;20029;-65
2023/09/07 09:36:34;;;;;;;5.28;3.22;;;30.40;41.50;;;;;;5055592;28;20412;-66
2023/09/07 09:39:00;;;;;;;9.80;3.40;;;30.40;42.30;;;;;;5055511;28;20025;-66
2023/09/07 09:41:27;;;;;;;4.20;3.08;;;30.60;42.30;;;;;;5055612;28;20083;-66
2023/09/07 09:43:55;;;;;;;9.52;3.00;;;30.60;41.10;;;;;;5055819;28;20029;-66
2023/09/07 09:46:22;;;;;;;7.25;3.50;;;30.70;41.10;;;;;;5055770;28;20052;-65
2023/09/07 09:48:49;;;;;;;3.47;2.92;;;30.80;41.20;;;;;;5055541;28;20501;-65
2023/09/07 09:51:15;;;;;;;8.23;3.05;;;30.80;41.20;;;;;;5054992;28;20459;-65
2023/09/07 09:53:42;;;;;;;6.03;3.05;;;30.60;40.70;;;;;;5055633;28;20115;-65
2023/09/07 09:56:08;;;;;;;6.63;3.10;;;30.70;41.20;;;;;;5055006;28;20078;-65
2023/09/07 09:58:34;;;;;;;5.63;3.20;;;30.70;40.30;;;;;;5055098;28;20043;-66
2023/09/07 10:01:05;;;;;;;6.25;3.10;;;30.70;40.70;;;;;;5037133;28;20029;-66
2023/09/07 10:03:44;;;;;;;5.03;3.10;;;30.70;40.70;;;;;;5055340;28;20396;-65
2023/09/07 10:06:11;;;;;;;3.90;2.85;;;30.70;40.50;;;;;;5054929;28;20052;-65
2023/09/07 10:08:37;;;;;;;5.75;3.38;;;30.70;40.40;;;;;;5055012;28;20099;-65
2023/09/07 10:11:09;;;;;;;4.43;2.95;;;30.70;40.00;;;;;;5054694;28;20037;-65
2023/09/07 10:13:35;;;;;;;9.15;3.00;;;30.60;39.50;;;;;;5055343;28;20025;-65
2023/09/07 10:16:08;;;;;;;5.10;3.00;;;30.60;39.60;;;;;;5054742;28;20035;-66
2023/09/07 10:18:35;;;;;;;4.13;2.75;;;30.60;39.80;;;;;;5045702;28;20045;-66
2023/09/07 10:21:02;;;;;;;5.70;2.63;;;30.70;39.60;;;;;;5034681;28;20029;-65
2023/09/07 10:23:39;;;;;;;9.18;2.70;;;30.70;38.10;;;;;;5035009;28;20037;-65
2023/09/07 10:26:09;;;;;;;7.63;3.03;;;30.80;38.50;;;;;;5034473;28;20028;-65
2023/09/07 10:28:35;;;;;;;3.42;2.67;;;30.80;37.80;;;;;;5034865;28;20040;-65
2023/09/07 10:31:05;;;;;;;3.85;2.97;;;30.80;37.50;;;;;;5033912;28;20100;-65
2023/09/07 10:33:35;;;;;;;4.32;3.00;;;30.60;37.10;;;;;;5034731;28;20029;-65
2023/09/07 10:36:03;;;;;;;3.83;2.70;;;30.60;37.50;;;;;;5034467;28;20038;-65
2023/09/07 10:38:30;;;;;;;5.93;2.60;;;30.60;37.10;;;;;;5034897;28;20029;-65
2023/09/07 10:40:57;;;;;;;4.10;2.55;;;30.60;37.80;;;;;;5034661;28;20025;-65
2023/09/07 10:43:33;;;;;;;5.40;2.85;;;30.50;37.30;;;;;;5034857;28;20079;-65
2023/09/07 10:46:00;;;;;;;5.13;2.92;;;30.50;37.30;;;;;;5034239;28;20056;-67
2023/09/07 10:48:28;;;;;;;3.38;2.45;;;30.50;37.30;;;;;;5034559;28;20123;-65
2023/09/07 10:50:54;;;;;;;3.03;2.47;;;30.60;37.40;;;;;;5034487;28;20476;-65
2023/09/07 10:53:31;;;;;;;4.97;2.83;;;30.50;36.50;;;;;;5034054;28;20109;-65
2023/09/07 10:55:59;;;;;;;5.22;3.30;;;30.50;37.40;;;;;;5034619;28;20050;-65
2023/09/07 10:58:31;;;;;;;5.28;2.83;;;30.60;37.20;;;;;;5034454;28;20105;-65
2023/09/07 11:00:58;;;;;;;6.50;2.63;;;30.60;36.80;;;;;;5034173;28;20029;-66
2023/09/07 11:03:27;;;;;;;4.95;2.53;;;30.70;36.40;;;;;;5033983;28;20152;-66
2023/09/07 11:06:03;;;;;;;6.30;3.00;;;30.70;36.70;;;;;;5034190;28;20061;-66
2023/09/07 11:08:29;;;;;;;3.13;2.80;;;30.70;36.50;;;;;;5033978;28;20030;-65
2023/09/07 11:10:55;;;;;;;8.45;2.60;;;30.60;36.30;;;;;;5034030;28;20169;-65
2023/09/07 11:13:23;;;;;;;6.25;2.80;;;30.60;37.10;;;;;;5033978;28;20445;-66
2023/09/07 11:15:48;;;;;;;7.53;2.70;;;30.60;37.20;;;;;;5036153;28;20052;-66
2023/09/07 11:18:20;;;;;;;5.38;2.88;;;30.60;37.80;;;;;;5033726;28;20459;-66
2023/09/07 11:20:46;;;;;;;3.20;2.55;;;30.60;37.20;;;;;;5034182;28;20031;-66
2023/09/07 11:23:11;;;;;;;6.15;3.08;;;30.50;37.10;;;;;;5033510;28;20108;-66
2023/09/07 11:25:38;;;;;;;4.82;2.50;;;30.50;36.90;;;;;;5033392;28;20033;-65
2023/09/07 11:28:08;;;;;;;7.00;2.47;;;30.60;37.30;;;;;;5033425;28;20025;-66
2023/09/07 11:30:34;;;;;;;4.75;2.50;;;30.50;37.30;;;;;;5033886;28;20060;-65
2023/09/07 11:33:09;;;;;;;11.77;2.70;;;30.50;37.10;;;;;;5033999;28;20057;-65
2023/09/07 11:35:34;;;;;;;4.35;2.50;;;30.40;36.90;;;;;;5034032;28;20060;-65
2023/09/07 11:38:03;;;;;;;3.25;2.65;;;30.40;36.80;;;;;;5033565;28;20431;-64
2023/09/07 11:40:29;;;;;;;6.35;3.15;;;30.40;37.60;;;;;;5033631;28;20030;-65
2023/09/07 11:42:55;;;;;;;4.00;2.72;;;30.30;38.20;;;;;;5032780;28;20021;-65
2023/09/07 11:45:21;;;;;;;5.18;2.70;;;30.20;37.70;;;;;;5033081;28;20072;-66
2023/09/07 11:47:47;;;;;;;7.57;3.05;;;30.20;38.20;;;;;;5033401;28;20040;-66
2023/09/07 11:50:12;;;;;;;8.00;3.20;;;30.20;38.50;;;;;;5033119;28;20029;-64
2023/09/07 11:52:38;;;;;;;5.78;2.50;;;30.20;38.60;;;;;;5033288;28;20031;-66
2023/09/07 11:55:04;;;;;;;3.20;2.67;;;30.30;38.90;;;;;;5032919;28;20096;-69
2023/09/07 11:57:30;;;;;;;5.00;2.75;;;30.40;39.10;;;;;;5033018;28;20088;-65
2023/09/07 11:59:56;;;;;;;5.78;2.50;;;30.40;38.90;;;;;;5033476;28;20107;-65
2023/09/07 12:02:22;;;;;;;3.15;2.63;;;30.50;38.70;;;;;;5032642;28;20156;-65
2023/09/07 12:04:48;;;;;;;5.80;4.00;;;30.50;38.80;;;;;;5033412;28;20033;-64
2023/09/07 12:07:14;;;;;;;6.53;2.70;;;30.40;38.90;;;;;;5032510;28;20124;-65
2023/09/07 12:09:40;;;;;;;3.85;2.30;;;30.40;39.10;;;;;;5045799;28;20025;-65
2023/09/07 12:12:06;;;;;;;7.50;3.25;;;30.30;39.00;;;;;;5052584;28;20033;-66
2023/09/07 12:14:32;;;;;;;3.33;2.55;;;30.10;39.20;;;;;;5052823;28;20025;-65
2023/09/07 12:16:57;;;;;;;3.63;2.95;;;30.00;39.40;;;;;;5052556;28;20519;-65
2023/09/07 12:19:23;;;;;;;4.43;2.30;;;30.00;40.30;;;;;;5052384;28;20029;-64
2023/09/07 12:21:50;;;;;;;5.63;2.75;;;29.80;39.30;;;;;;5052744;28;20040;-65
2023/09/07 12:24:16;;;;;;;6.63;2.95;;;29.80;40.00;;;;;;5052106;28;20047;-66
2023/09/07 12:26:42;;;;;;;6.75;3.17;;;29.70;40.30;;;;;;5052646;28;20502;-65
2023/09/07 12:29:07;;;;;;;6.78;2.75;;;29.70;40.50;;;;;;5052231;28;20033;-65
2023/09/07 12:31:33;;;;;;;5.63;3.75;;;29.60;40.60;;;;;;5052595;28;20099;-65
2023/09/07 12:33:59;;;;;;;4.80;2.80;;;29.50;40.50;;;;;;5052657;28;20021;-65
2023/09/07 12:36:28;;;;;;;6.07;2.70;;;29.40;40.50;;;;;;5052202;28;20025;-64
2023/09/07 12:38:53;;;;;;;4.85;2.70;;;29.30;40.70;;;;;;5052588;28;20059;-65